sensor_id;sensor_type;location;lat;lon;timestamp;P1;durP1;ratioP1;P2;durP2;ratioP2
15151;SDS011;7676;50.900;6.234;2023-03-31T00:07:36;5.50;;;1.60;;
15151;SDS011;7676;50.900;6.234;2023-03-31T00:22:41;3.67;;;1.47;;
15151;SDS011;7676;50.900;6.234;2023-03-31T00:37:47;4.00;;;1.57;;
15151;SDS011;7676;50.900;6.234;2023-03-31T00:52:54;8.90;;;2.07;;
15151;SDS011;7676;50.900;6.234;2023-03-31T01:07:59;9.97;;;1.97;;
15151;SDS011;7676;50.900;6.234;2023-03-31T01:53:53;9.77;;;2.27;;
15151;SDS011;7676;50.900;6.234;2023-03-31T02:09:17;10.20;;;2.63;;
15151;SDS011;7676;50.900;6.234;2023-03-31T02:24:24;6.40;;;2.40;;
15151;SDS011;7676;50.900;6.234;2023-03-31T02:39:30;4.83;;;1.70;;
15151;SDS011;7676;50.900;6.234;2023-03-31T02:54:58;5.57;;;1.57;;
15151;SDS011;7676;50.900;6.234;2023-03-31T03:26:13;3.37;;;1.00;;
15151;SDS011;7676;50.900;6.234;2023-03-31T03:41:17;2.90;;;1.17;;
15151;SDS011;7676;50.900;6.234;2023-03-31T03:56:19;3.07;;;1.50;;
15151;SDS011;7676;50.900;6.234;2023-03-31T04:11:22;2.57;;;1.07;;
15151;SDS011;7676;50.900;6.234;2023-03-31T04:26:26;2.20;;;1.23;;
15151;SDS011;7676;50.900;6.234;2023-03-31T04:41:39;3.10;;;1.30;;
15151;SDS011;7676;50.900;6.234;2023-03-31T04:56:42;4.00;;;1.00;;
15151;SDS011;7676;50.900;6.234;2023-03-31T05:11:45;2.40;;;0.90;;
15151;SDS011;7676;50.900;6.234;2023-03-31T05:26:47;1.67;;;0.80;;
15151;SDS011;7676;50.900;6.234;2023-03-31T05:41:53;1.93;;;0.60;;
15151;SDS011;7676;50.900;6.234;2023-03-31T05:56:56;1.10;;;0.60;;
15151;SDS011;7676;50.900;6.234;2023-03-31T06:11:58;1.50;;;1.00;;
15151;SDS011;7676;50.900;6.234;2023-03-31T06:27:02;1.63;;;0.70;;
15151;SDS011;7676;50.900;6.234;2023-03-31T06:42:07;3.23;;;1.07;;
15151;SDS011;7676;50.900;6.234;2023-03-31T06:57:14;3.67;;;1.20;;
15151;SDS011;7676;50.900;6.234;2023-03-31T07:12:37;4.60;;;1.20;;
15151;SDS011;7676;50.900;6.234;2023-03-31T07:27:40;4.43;;;1.50;;
15151;SDS011;7676;50.900;6.234;2023-03-31T07:42:43;4.83;;;1.67;;
15151;SDS011;7676;50.900;6.234;2023-03-31T07:57:52;4.30;;;1.60;;
15151;SDS011;7676;50.900;6.234;2023-03-31T08:12:54;7.43;;;2.13;;
15151;SDS011;7676;50.900;6.234;2023-03-31T08:27:57;6.07;;;1.70;;
15151;SDS011;7676;50.900;6.234;2023-03-31T08:43:14;8.43;;;2.03;;
15151;SDS011;7676;50.900;6.234;2023-03-31T08:58:42;5.17;;;2.20;;
15151;SDS011;7676;50.900;6.234;2023-03-31T09:29:06;9.97;;;2.47;;
15151;SDS011;7676;50.900;6.234;2023-03-31T09:44:21;6.10;;;2.30;;
15151;SDS011;7676;50.900;6.234;2023-03-31T09:59:43;7.73;;;2.07;;
15151;SDS011;7676;50.900;6.234;2023-03-31T10:14:53;6.50;;;1.87;;
15151;SDS011;7676;50.900;6.234;2023-03-31T10:30:03;7.53;;;1.83;;
15151;SDS011;7676;50.900;6.234;2023-03-31T10:45:12;2.43;;;1.20;;
15151;SDS011;7676;50.900;6.234;2023-03-31T11:00:54;5.23;;;1.70;;
15151;SDS011;7676;50.900;6.234;2023-03-31T11:16:21;7.47;;;2.40;;
15151;SDS011;7676;50.900;6.234;2023-03-31T11:31:37;6.80;;;2.10;;
15151;SDS011;7676;50.900;6.234;2023-03-31T11:46:54;7.73;;;2.10;;
15151;SDS011;7676;50.900;6.234;2023-03-31T12:02:14;9.13;;;3.00;;
15151;SDS011;7676;50.900;6.234;2023-03-31T12:17:25;8.23;;;2.53;;
15151;SDS011;7676;50.900;6.234;2023-03-31T12:32:32;5.30;;;1.90;;
15151;SDS011;7676;50.900;6.234;2023-03-31T13:18:49;4.70;;;1.67;;
15151;SDS011;7676;50.900;6.234;2023-03-31T13:33:57;3.23;;;1.30;;
15151;SDS011;7676;50.900;6.234;2023-03-31T14:50:07;8.77;;;2.07;;
15151;SDS011;7676;50.900;6.234;2023-03-31T15:20:34;3.97;;;1.60;;
15151;SDS011;7676;50.900;6.234;2023-03-31T15:35:41;6.97;;;1.90;;
15151;SDS011;7676;50.900;6.234;2023-03-31T15:50:45;3.17;;;1.20;;
15151;SDS011;7676;50.900;6.234;2023-03-31T16:05:53;4.23;;;2.60;;
15151;SDS011;7676;50.900;6.234;2023-03-31T16:20:58;3.40;;;0.97;;
15151;SDS011;7676;50.900;6.234;2023-03-31T16:36:04;3.20;;;1.50;;
15151;SDS011;7676;50.900;6.234;2023-03-31T16:51:09;3.23;;;1.00;;
15151;SDS011;7676;50.900;6.234;2023-03-31T17:06:12;2.67;;;1.43;;
15151;SDS011;7676;50.900;6.234;2023-03-31T17:21:15;2.53;;;0.97;;
15151;SDS011;7676;50.900;6.234;2023-03-31T17:36:20;3.30;;;1.40;;
15151;SDS011;7676;50.900;6.234;2023-03-31T17:51:23;3.50;;;0.93;;
15151;SDS011;7676;50.900;6.234;2023-03-31T18:06:25;2.43;;;0.97;;
15151;SDS011;7676;50.900;6.234;2023-03-31T18:21:30;3.93;;;1.67;;
15151;SDS011;7676;50.900;6.234;2023-03-31T18:37:34;5.30;;;1.20;;
15151;SDS011;7676;50.900;6.234;2023-03-31T18:52:37;5.57;;;2.70;;
15151;SDS011;7676;50.900;6.234;2023-03-31T19:07:42;2.73;;;0.90;;
15151;SDS011;7676;50.900;6.234;2023-03-31T19:22:46;4.10;;;1.10;;
15151;SDS011;7676;50.900;6.234;2023-03-31T19:37:52;2.93;;;1.30;;
15151;SDS011;7676;50.900;6.234;2023-03-31T19:52:59;5.80;;;1.80;;
15151;SDS011;7676;50.900;6.234;2023-03-31T20:08:02;5.57;;;1.33;;
15151;SDS011;7676;50.900;6.234;2023-03-31T20:23:07;3.67;;;1.20;;
15151;SDS011;7676;50.900;6.234;2023-03-31T20:38:09;3.83;;;1.40;;
15151;SDS011;7676;50.900;6.234;2023-03-31T20:53:14;4.67;;;1.83;;
15151;SDS011;7676;50.900;6.234;2023-03-31T21:08:17;4.17;;;1.50;;
15151;SDS011;7676;50.900;6.234;2023-03-31T21:23:21;4.60;;;1.33;;
15151;SDS011;7676;50.900;6.234;2023-03-31T21:38:25;4.83;;;1.30;;
15151;SDS011;7676;50.900;6.234;2023-03-31T21:53:31;3.50;;;1.30;;
15151;SDS011;7676;50.900;6.234;2023-03-31T22:08:35;3.93;;;1.00;;
15151;SDS011;7676;50.900;6.234;2023-03-31T22:23:38;3.67;;;1.00;;
15151;SDS011;7676;50.900;6.234;2023-03-31T22:38:42;2.83;;;0.90;;
15151;SDS011;7676;50.900;6.234;2023-03-31T22:53:48;3.70;;;0.77;;
15151;SDS011;7676;50.900;6.234;2023-03-31T23:08:52;3.30;;;0.90;;
15151;SDS011;7676;50.900;6.234;2023-03-31T23:23:55;1.17;;;0.60;;
15151;SDS011;7676;50.900;6.234;2023-03-31T23:38:59;1.67;;;0.73;;
15151;SDS011;7676;50.900;6.234;2023-03-31T23:54:01;2.23;;;0.73;;
